createdAt,value
2023-02-12T00:00:17.208Z,3.15
2023-02-12T00:01:16.713Z,3.16
2023-02-12T00:02:17.251Z,3.17
2023-02-12T00:03:16.931Z,3.16
2023-02-12T00:04:16.594Z,3.17
2023-02-12T00:05:17.099Z,3.17
2023-02-12T00:06:16.555Z,3.19
2023-02-12T00:07:17.055Z,3.19
2023-02-12T00:08:16.547Z,3.19
2023-02-12T00:09:17.053Z,3.17
2023-02-12T00:10:16.565Z,3.15
2023-02-12T00:11:17.085Z,3.15
2023-02-12T00:12:16.652Z,3.15
2023-02-12T00:13:17.158Z,3.13
2023-02-12T00:14:16.685Z,3.15
2023-02-12T00:15:17.227Z,3.13
2023-02-12T00:16:16.819Z,3.16
2023-02-12T00:17:16.476Z,3.20
2023-02-12T00:18:16.971Z,3.19
2023-02-12T00:19:16.482Z,3.20
2023-02-12T00:20:16.958Z,3.16
2023-02-12T00:21:16.453Z,3.12
2023-02-12T00:22:16.925Z,3.15
2023-02-12T00:23:16.470Z,3.20
2023-02-12T00:24:16.963Z,3.23
2023-02-12T00:25:16.463Z,3.20
2023-02-12T00:26:17.000Z,3.22
2023-02-12T00:27:16.516Z,3.20
2023-02-12T00:28:17.125Z,3.20
2023-02-12T00:29:16.743Z,3.19
2023-02-12T00:30:17.285Z,3.20
2023-02-12T00:31:16.944Z,3.24
2023-02-12T00:32:17.017Z,3.26
2023-02-12T00:33:16.488Z,3.26
2023-02-12T00:34:17.003Z,3.28
2023-02-12T00:35:16.485Z,3.27
2023-02-12T00:36:16.968Z,3.27
2023-02-12T00:37:16.476Z,3.27
2023-02-12T00:38:16.987Z,3.33
2023-02-12T00:39:16.483Z,3.40
2023-02-12T00:40:16.995Z,3.46
2023-02-12T00:41:16.486Z,3.50
2023-02-12T00:42:16.923Z,3.50
2023-02-12T00:43:16.427Z,3.53
2023-02-12T00:44:16.960Z,3.57
2023-02-12T00:45:16.449Z,3.55
2023-02-12T00:46:17.001Z,3.54
2023-02-12T00:47:16.634Z,3.53
2023-02-12T00:48:17.134Z,3.51
2023-02-12T00:49:16.646Z,3.51
2023-02-12T00:50:17.177Z,3.51
2023-02-12T00:51:16.654Z,3.51
2023-02-12T00:52:17.229Z,3.53
2023-02-12T00:53:16.760Z,3.54
2023-02-12T00:54:16.520Z,3.57
2023-02-12T00:55:17.026Z,3.55
2023-02-12T00:56:16.556Z,3.58
2023-02-12T00:57:17.058Z,3.58
2023-02-12T00:58:18.772Z,3.57
2023-02-12T00:59:16.588Z,3.61
2023-02-12T01:00:17.124Z,3.61
2023-02-12T01:01:16.625Z,3.61
2023-02-12T01:02:17.040Z,3.60
2023-02-12T01:03:16.505Z,3.61
2023-02-12T01:04:16.976Z,3.61
2023-02-12T01:05:16.487Z,3.58
2023-02-12T01:06:17.148Z,3.60
2023-02-12T01:07:16.673Z,3.60
2023-02-12T01:08:17.187Z,3.55
2023-02-12T01:09:16.723Z,3.54
2023-02-12T01:10:17.296Z,3.50
2023-02-12T01:11:16.863Z,3.44
2023-02-12T01:12:16.602Z,3.46
2023-02-12T01:13:17.087Z,3.43
2023-02-12T01:14:16.590Z,3.43
2023-02-12T01:15:17.080Z,3.46
2023-02-12T01:16:16.680Z,3.46
2023-02-12T01:17:16.397Z,3.43
2023-02-12T01:18:16.889Z,3.43
2023-02-12T01:19:16.414Z,3.44
2023-02-12T01:20:16.925Z,3.44
2023-02-12T01:21:16.430Z,3.44
2023-02-12T01:22:17.051Z,3.43
2023-02-12T01:23:16.575Z,3.43
2023-02-12T01:24:17.079Z,3.43
2023-02-12T01:25:18.722Z,3.46
2023-02-12T01:26:17.103Z,3.33
2023-02-12T01:27:16.607Z,3.33
2023-02-12T01:28:17.119Z,3.28
2023-02-12T01:29:16.650Z,3.28
2023-02-12T01:30:17.195Z,3.28
2023-02-12T01:31:16.782Z,3.24
2023-02-12T01:32:17.287Z,3.23
2023-02-12T01:33:16.916Z,3.24
2023-02-12T01:34:16.416Z,3.27
2023-02-12T01:35:16.961Z,3.27
2023-02-12T01:36:16.464Z,3.30
2023-02-12T01:37:16.961Z,3.31
2023-02-12T01:38:16.454Z,3.31
2023-02-12T01:39:16.945Z,3.33
2023-02-12T01:40:16.449Z,3.31
2023-02-12T01:41:16.969Z,3.31
2023-02-12T01:42:16.548Z,3.30
2023-02-12T01:43:17.011Z,3.31
2023-02-12T01:44:16.532Z,3.34
2023-02-12T01:45:16.998Z,3.34
2023-02-12T01:46:16.526Z,3.31
2023-02-12T01:47:17.090Z,3.27
2023-02-12T01:48:16.578Z,3.19
2023-02-12T01:49:17.074Z,3.19
2023-02-12T01:50:16.599Z,3.19
2023-02-12T01:51:17.113Z,3.17
2023-02-12T01:52:16.872Z,3.19
2023-02-12T01:53:16.397Z,3.20
2023-02-12T01:54:16.906Z,3.20
2023-02-12T01:55:16.395Z,3.20
2023-02-12T01:56:16.902Z,3.22
2023-02-12T01:57:16.394Z,3.23
2023-02-12T01:58:16.928Z,3.23
2023-02-12T01:59:16.447Z,3.24
2023-02-12T02:00:16.946Z,3.26
2023-02-12T02:01:16.485Z,3.34
2023-02-12T02:02:17.262Z,3.34
2023-02-12T02:03:16.832Z,3.37
2023-02-12T02:04:16.427Z,3.39
2023-02-12T02:05:16.961Z,3.37
2023-02-12T02:06:16.453Z,3.41
2023-02-12T02:07:16.974Z,3.39
2023-02-12T02:08:16.465Z,3.40
2023-02-12T02:09:16.951Z,3.40
2023-02-12T02:10:16.458Z,3.40
2023-02-12T02:11:16.962Z,3.41
2023-02-12T02:12:17.207Z,3.40
2023-02-12T02:13:16.699Z,3.44
2023-02-12T02:14:17.196Z,3.46
2023-02-12T02:15:16.680Z,3.43
2023-02-12T02:16:17.176Z,3.44
2023-02-12T02:17:16.796Z,3.46
2023-02-12T02:18:17.315Z,3.44
2023-02-12T02:19:16.863Z,3.47
2023-02-12T02:20:16.364Z,3.46
2023-02-12T02:21:16.865Z,3.46
2023-02-12T02:22:16.403Z,3.44
2023-02-12T02:23:16.904Z,3.47
2023-02-12T02:24:16.383Z,3.47
2023-02-12T02:25:16.849Z,3.43
2023-02-12T02:26:16.320Z,3.44
2023-02-12T02:27:16.790Z,3.43
2023-02-12T02:28:17.347Z,3.46
2023-02-12T02:29:16.930Z,3.49
2023-02-12T02:30:16.419Z,3.47
2023-02-12T02:31:17.022Z,3.47
2023-02-12T02:32:16.688Z,3.46
2023-02-12T02:33:17.218Z,3.46
2023-02-12T02:34:16.744Z,3.46
2023-02-12T02:35:17.286Z,3.47
2023-02-12T02:36:16.799Z,3.46
2023-02-12T02:37:17.293Z,3.50
2023-02-12T02:38:16.773Z,3.49
2023-02-12T02:39:17.271Z,3.50
2023-02-12T02:40:16.781Z,3.49
2023-02-12T02:41:17.259Z,3.53
2023-02-12T02:42:16.612Z,3.53
2023-02-12T02:43:17.134Z,3.51
2023-02-12T02:44:16.613Z,3.50
2023-02-12T02:45:17.132Z,3.50
2023-02-12T02:46:16.661Z,3.49
2023-02-12T02:47:17.190Z,3.41
2023-02-12T02:48:16.705Z,3.36
2023-02-12T02:49:17.227Z,3.36
2023-02-12T02:50:16.749Z,3.37
2023-02-12T02:51:17.249Z,3.39
2023-02-12T02:52:17.104Z,3.40
2023-02-12T02:53:16.587Z,3.37
2023-02-12T02:54:17.074Z,3.41
2023-02-12T02:55:16.603Z,3.43
2023-02-12T02:56:17.078Z,3.43
2023-02-12T02:57:16.573Z,3.44
2023-02-12T02:58:17.092Z,3.47
2023-02-12T02:59:16.584Z,3.47
2023-02-12T03:00:17.084Z,3.49
2023-02-12T03:01:16.615Z,3.47
2023-02-12T03:02:16.303Z,3.50
2023-02-12T03:03:16.833Z,3.49
2023-02-12T03:04:16.482Z,3.49
2023-02-12T03:05:16.978Z,3.47
2023-02-12T03:06:16.497Z,3.47
2023-02-12T03:07:16.976Z,3.44
2023-02-12T03:08:16.473Z,3.40
2023-02-12T03:09:16.985Z,3.37
2023-02-12T03:10:16.511Z,3.33
2023-02-12T03:11:17.034Z,3.24
2023-02-12T03:12:16.363Z,3.24
2023-02-12T03:13:16.924Z,3.23
2023-02-12T03:14:16.434Z,3.20
2023-02-12T03:15:16.934Z,3.16
2023-02-12T03:16:16.510Z,3.17
2023-02-12T03:17:17.155Z,3.16
2023-02-12T03:18:16.698Z,3.16
2023-02-12T03:19:17.202Z,3.16
2023-02-12T03:20:16.706Z,3.16
2023-02-12T03:21:17.205Z,3.20
2023-02-12T03:22:16.780Z,3.19
2023-02-12T03:23:17.264Z,3.20
2023-02-12T03:24:16.743Z,3.16
2023-02-12T03:25:17.283Z,3.16
2023-02-12T03:26:16.787Z,3.16
2023-02-12T03:27:17.314Z,3.15
2023-02-12T03:28:16.833Z,3.19
2023-02-12T03:29:16.459Z,3.22
2023-02-12T03:30:16.978Z,3.20
2023-02-12T03:31:16.552Z,3.20
2023-02-12T03:32:16.807Z,3.23
2023-02-12T03:33:16.327Z,3.27
2023-02-12T03:34:16.803Z,3.27
2023-02-12T03:35:17.321Z,3.31
2023-02-12T03:36:16.820Z,3.30
2023-02-12T03:37:17.301Z,3.31
2023-02-12T03:38:16.780Z,3.31
2023-02-12T03:39:17.243Z,3.33
2023-02-12T03:40:16.783Z,3.28
2023-02-12T03:41:17.152Z,3.27
2023-02-12T03:42:17.020Z,3.24
2023-02-12T03:43:16.574Z,3.24
2023-02-12T03:44:17.066Z,3.26
2023-02-12T03:45:16.624Z,3.27
2023-02-12T03:46:17.208Z,3.26
2023-02-12T03:47:16.856Z,3.27
2023-02-12T03:48:16.318Z,3.31
2023-02-12T03:49:16.789Z,3.27
2023-02-12T03:50:17.298Z,3.27
2023-02-12T03:51:16.783Z,3.28
2023-02-12T03:52:16.437Z,3.31
2023-02-12T03:53:16.911Z,3.30
2023-02-12T03:54:16.409Z,3.27
2023-02-12T03:55:16.934Z,3.27
2023-02-12T03:56:16.422Z,3.26
2023-02-12T03:57:16.942Z,3.27
2023-02-12T03:58:16.448Z,3.36
2023-02-12T03:59:16.935Z,3.39
2023-02-12T04:00:16.422Z,3.41
2023-02-12T04:01:17.014Z,3.41
2023-02-12T04:02:16.502Z,3.41
2023-02-12T04:03:17.149Z,3.44
2023-02-12T04:04:16.718Z,3.49
2023-02-12T04:05:17.304Z,3.53
2023-02-12T04:06:16.798Z,3.51
2023-02-12T04:07:17.297Z,3.57
2023-02-12T04:08:16.784Z,3.55
2023-02-12T04:09:17.311Z,3.58
2023-02-12T04:10:16.810Z,3.60
2023-02-12T04:11:16.312Z,3.61
2023-02-12T04:12:16.898Z,3.65
2023-02-12T04:13:16.406Z,3.62
2023-02-12T04:14:16.937Z,3.65
2023-02-12T04:15:16.715Z,3.65
2023-02-12T04:16:16.647Z,3.65
2023-02-12T04:17:16.554Z,3.62
2023-02-12T04:18:17.115Z,3.61
2023-02-12T04:19:16.612Z,3.55
2023-02-12T04:20:17.118Z,3.53
2023-02-12T04:21:16.599Z,3.54
2023-02-12T04:22:16.981Z,3.55
2023-02-12T04:23:16.685Z,3.55
2023-02-12T04:24:17.254Z,3.58
2023-02-12T04:25:16.756Z,3.57
2023-02-12T04:26:17.270Z,3.57
2023-02-12T04:27:16.842Z,3.58
2023-02-12T04:28:16.420Z,3.58
2023-02-12T04:29:16.998Z,3.54
2023-02-12T04:30:16.480Z,3.49
2023-02-12T04:31:17.043Z,3.47
2023-02-12T04:32:16.503Z,3.46
2023-02-12T04:33:16.990Z,3.46
2023-02-12T04:34:16.512Z,3.47
2023-02-12T04:35:16.994Z,3.47
2023-02-12T04:36:16.491Z,3.50
2023-02-12T04:37:17.006Z,3.49
2023-02-12T04:38:16.525Z,3.47
2023-02-12T04:39:17.025Z,3.46
2023-02-12T04:40:16.527Z,3.50
2023-02-12T04:41:17.003Z,3.47
2023-02-12T04:42:16.957Z,3.43
2023-02-12T04:43:16.456Z,3.46
2023-02-12T04:44:16.944Z,3.46
2023-02-12T04:45:16.483Z,3.43
2023-02-12T04:46:17.025Z,3.43
2023-02-12T04:47:16.579Z,3.44
2023-02-12T04:48:17.068Z,3.40
2023-02-12T04:49:16.568Z,3.43
2023-02-12T04:50:17.097Z,3.41
2023-02-12T04:51:16.590Z,3.40
2023-02-12T04:52:17.091Z,3.40
2023-02-12T04:53:16.570Z,3.37
2023-02-12T04:54:17.098Z,3.33
2023-02-12T04:55:16.583Z,3.34
2023-02-12T04:56:17.115Z,3.33
2023-02-12T04:57:16.626Z,3.33
2023-02-12T04:58:17.140Z,3.33
2023-02-12T04:59:16.640Z,3.34
2023-02-12T05:00:17.200Z,3.37
2023-02-12T05:01:16.778Z,3.36
2023-02-12T05:02:16.472Z,3.39
2023-02-12T05:03:16.958Z,3.36
2023-02-12T05:04:16.469Z,3.39
2023-02-12T05:05:17.059Z,3.37
2023-02-12T05:06:16.670Z,3.37
2023-02-12T05:07:17.168Z,3.36
2023-02-12T05:08:16.652Z,3.34
2023-02-12T05:09:17.172Z,3.34
2023-02-12T05:10:16.668Z,3.36
2023-02-12T05:11:17.185Z,3.34
2023-02-12T05:12:16.646Z,3.31
2023-02-12T05:13:17.114Z,3.33
2023-02-12T05:14:16.607Z,3.30
2023-02-12T05:15:17.122Z,3.33
2023-02-12T05:16:16.688Z,3.33
2023-02-12T05:17:16.414Z,3.34
2023-02-12T05:18:16.925Z,3.36
2023-02-12T05:19:16.422Z,3.34
2023-02-12T05:20:16.956Z,3.36
2023-02-12T05:21:16.512Z,3.34
2023-02-12T05:22:17.108Z,3.34
2023-02-12T05:23:16.623Z,3.37
2023-02-12T05:24:17.158Z,3.34
2023-02-12T05:25:16.695Z,3.33
2023-02-12T05:26:17.186Z,3.30
2023-02-12T05:27:16.677Z,3.30
2023-02-12T05:28:17.225Z,3.33
2023-02-12T05:29:16.797Z,3.31
2023-02-12T05:30:17.312Z,3.33
2023-02-12T05:31:18.804Z,3.28
2023-02-12T05:32:16.430Z,3.30
2023-02-12T05:33:17.077Z,3.30
2023-02-12T05:34:16.576Z,3.27
2023-02-12T05:35:17.088Z,3.28
2023-02-12T05:36:16.683Z,3.28
2023-02-12T05:37:17.184Z,3.31
2023-02-12T05:38:16.668Z,3.31
2023-02-12T05:39:17.152Z,3.34
2023-02-12T05:40:16.627Z,3.31
2023-02-12T05:41:17.137Z,3.30
2023-02-12T05:42:16.584Z,3.23
2023-02-12T05:43:17.090Z,3.22
2023-02-12T05:44:16.597Z,3.20
2023-02-12T05:45:17.076Z,3.22
2023-02-12T05:46:16.687Z,3.22
2023-02-12T05:47:17.274Z,3.23
2023-02-12T05:48:16.800Z,3.23
2023-02-12T05:49:17.276Z,3.17
2023-02-12T05:50:16.776Z,3.15
2023-02-12T05:51:17.295Z,3.12
2023-02-12T05:52:16.445Z,3.10
2023-02-12T05:53:16.981Z,3.09
2023-02-12T05:54:16.460Z,3.07
2023-02-12T05:55:16.956Z,3.00
2023-02-12T05:56:16.477Z,3.02
2023-02-12T05:57:16.949Z,3.02
2023-02-12T05:58:16.448Z,3.00
2023-02-12T05:59:16.964Z,3.02
2023-02-12T06:00:16.469Z,2.99
2023-02-12T06:01:16.961Z,2.99
2023-02-12T06:02:16.584Z,3.00
2023-02-12T06:03:17.155Z,3.02
2023-02-12T06:04:16.731Z,3.02
2023-02-12T06:05:17.322Z,3.00
2023-02-12T06:06:16.840Z,3.03
2023-02-12T06:07:16.342Z,3.00
2023-02-12T06:08:16.836Z,3.06
2023-02-12T06:09:16.307Z,3.03
2023-02-12T06:10:16.784Z,3.02
2023-02-12T06:11:17.280Z,3.06
2023-02-12T06:12:16.961Z,3.05
2023-02-12T06:13:16.417Z,3.06
2023-02-12T06:14:16.974Z,3.06
2023-02-12T06:15:16.500Z,3.05
2023-02-12T06:16:17.025Z,3.03
2023-02-12T06:17:16.595Z,3.03
2023-02-12T06:18:17.107Z,3.05
2023-02-12T06:19:16.631Z,3.00
2023-02-12T06:20:17.178Z,3.02
2023-02-12T06:21:16.678Z,2.99
2023-02-12T06:22:17.259Z,3.02
2023-02-12T06:23:16.758Z,3.02
2023-02-12T06:24:17.235Z,3.00
2023-02-12T06:25:16.749Z,3.03
2023-02-12T06:26:17.249Z,3.05
2023-02-12T06:27:16.748Z,3.06
2023-02-12T06:28:17.247Z,3.05
2023-02-12T06:29:16.813Z,3.07
2023-02-12T06:30:16.358Z,3.06
2023-02-12T06:31:16.975Z,3.07
2023-02-12T06:32:17.279Z,3.09
2023-02-12T06:33:16.890Z,3.09
2023-02-12T06:34:16.395Z,3.07
2023-02-12T06:35:16.894Z,3.07
2023-02-12T06:36:16.410Z,3.09
2023-02-12T06:37:16.910Z,3.06
2023-02-12T06:38:16.398Z,3.07
2023-02-12T06:39:16.936Z,3.07
2023-02-12T06:40:16.487Z,3.10
2023-02-12T06:41:17.024Z,3.07
2023-02-12T06:42:16.519Z,3.09
2023-02-12T06:43:17.013Z,3.12
2023-02-12T06:44:16.553Z,3.10
2023-02-12T06:45:17.055Z,3.15
2023-02-12T06:46:16.558Z,3.13
2023-02-12T06:47:17.117Z,3.13
2023-02-12T06:48:16.620Z,3.15
2023-02-12T06:49:17.129Z,3.17
2023-02-12T06:50:16.648Z,3.16
2023-02-12T06:51:17.169Z,3.17
2023-02-12T06:52:16.375Z,3.17
2023-02-12T06:53:16.884Z,3.20
2023-02-12T06:54:16.373Z,3.19
2023-02-12T06:55:16.920Z,3.17
2023-02-12T06:56:16.410Z,3.19
2023-02-12T06:57:16.936Z,3.19
2023-02-12T06:58:16.444Z,3.22
2023-02-12T06:59:16.968Z,3.20
2023-02-12T07:00:16.572Z,3.23
2023-02-12T07:01:17.054Z,3.24
2023-02-12T07:02:16.876Z,3.26
2023-02-12T07:03:16.339Z,3.26
2023-02-12T07:04:16.958Z,3.27
2023-02-12T07:05:16.693Z,3.27
2023-02-12T07:06:17.164Z,3.28
2023-02-12T07:07:16.648Z,3.31
2023-02-12T07:08:17.186Z,3.33
2023-02-12T07:09:16.667Z,3.33
2023-02-12T07:10:17.199Z,3.34
2023-02-12T07:11:16.708Z,3.36
2023-02-12T07:12:16.396Z,3.37
2023-02-12T07:13:16.885Z,3.39
2023-02-12T07:14:16.384Z,3.37
2023-02-12T07:15:16.885Z,3.39
2023-02-12T07:16:16.414Z,3.37
2023-02-12T07:17:16.997Z,3.37
2023-02-12T07:18:16.504Z,3.37
2023-02-12T07:19:17.041Z,3.40
2023-02-12T07:20:16.570Z,3.41
2023-02-12T07:21:17.084Z,3.40
2023-02-12T07:22:16.615Z,3.43
2023-02-12T07:23:17.154Z,3.46
2023-02-12T07:24:16.644Z,3.46
2023-02-12T07:25:17.141Z,3.49
2023-02-12T07:26:16.633Z,3.47
2023-02-12T07:27:17.147Z,3.50
2023-02-12T07:28:16.767Z,3.50
2023-02-12T07:29:16.384Z,3.51
2023-02-12T07:30:16.873Z,3.54
2023-02-12T07:31:16.466Z,3.54
2023-02-12T07:32:17.077Z,3.61
2023-02-12T07:33:16.607Z,3.61
2023-02-12T07:34:17.096Z,3.64
2023-02-12T07:35:16.588Z,3.62
2023-02-12T07:36:17.096Z,3.61
2023-02-12T07:37:16.625Z,3.57
2023-02-12T07:38:17.162Z,3.55
2023-02-12T07:39:16.653Z,3.57
2023-02-12T07:40:17.176Z,3.55
2023-02-12T07:41:16.684Z,3.58
2023-02-12T07:42:16.644Z,3.61
2023-02-12T07:43:17.174Z,3.65
2023-02-12T07:44:16.651Z,3.67
2023-02-12T07:45:17.174Z,3.69
2023-02-12T07:46:16.674Z,3.75
2023-02-12T07:47:16.389Z,3.78
2023-02-12T07:48:16.898Z,3.82
2023-02-12T07:49:16.423Z,3.88
2023-02-12T07:50:16.910Z,3.88
2023-02-12T07:51:16.434Z,3.92
2023-02-12T07:52:16.490Z,3.89
2023-02-12T07:53:17.013Z,3.89
2023-02-12T07:54:16.563Z,3.92
2023-02-12T07:55:17.050Z,3.88
2023-02-12T07:56:16.536Z,3.86
2023-02-12T07:57:17.020Z,3.85
2023-02-12T07:58:16.526Z,3.86
2023-02-12T07:59:17.054Z,3.88
2023-02-12T08:00:16.538Z,3.89
2023-02-12T08:01:17.051Z,3.96
2023-02-12T08:02:16.802Z,3.99
2023-02-12T08:03:16.313Z,3.99
2023-02-12T08:04:16.889Z,4.06
2023-02-12T08:05:16.556Z,4.10
2023-02-12T08:06:17.082Z,4.14
2023-02-12T08:07:16.635Z,4.13
2023-02-12T08:08:17.160Z,4.14
2023-02-12T08:09:16.669Z,4.17
2023-02-12T08:10:17.236Z,4.16
2023-02-12T08:11:16.730Z,4.13
2023-02-12T08:12:16.313Z,4.16
2023-02-12T08:13:16.809Z,4.17
2023-02-12T08:14:16.637Z,4.23
2023-02-12T08:15:17.120Z,4.30
2023-02-12T08:16:16.688Z,4.33
2023-02-12T08:17:17.261Z,4.37
2023-02-12T08:18:16.770Z,4.44
2023-02-12T08:19:21.092Z,4.48
2023-02-12T08:20:16.568Z,4.48
2023-02-12T08:21:17.139Z,4.52
2023-02-12T08:22:16.827Z,4.61
2023-02-12T08:23:16.321Z,4.59
2023-02-12T08:24:16.837Z,4.67
2023-02-12T08:25:16.338Z,4.71
2023-02-12T08:26:16.829Z,4.75
2023-02-12T08:27:17.302Z,4.80
2023-02-12T08:28:16.908Z,4.87
2023-02-12T08:29:16.517Z,4.92
2023-02-12T08:30:17.023Z,4.93
2023-02-12T08:31:16.647Z,4.97
2023-02-12T08:32:17.215Z,5.03
2023-02-12T08:33:16.827Z,5.06
2023-02-12T08:34:16.328Z,5.08
2023-02-12T08:35:16.850Z,5.04
2023-02-12T08:36:16.402Z,4.99
2023-02-12T08:37:16.889Z,4.99
2023-02-12T08:38:16.380Z,4.96
2023-02-12T08:39:16.865Z,5.00
2023-02-12T08:40:16.339Z,5.00
2023-02-12T08:41:17.790Z,5.07
2023-02-12T08:42:16.333Z,5.11
2023-02-12T08:43:16.836Z,5.08
2023-02-12T08:44:16.318Z,5.17
2023-02-12T08:45:16.855Z,5.21
2023-02-12T08:46:16.388Z,5.27
2023-02-12T08:47:16.914Z,5.25
2023-02-12T08:48:16.428Z,5.31
2023-02-12T08:49:16.927Z,5.28
2023-02-12T08:50:16.432Z,5.30
2023-02-12T08:51:16.951Z,5.32
2023-02-12T08:52:17.179Z,5.28
2023-02-12T08:53:16.671Z,5.27
2023-02-12T08:54:17.213Z,5.25
2023-02-12T08:55:16.727Z,5.30
2023-02-12T08:56:17.215Z,5.35
2023-02-12T08:57:16.740Z,5.27
2023-02-12T08:58:17.206Z,5.20
2023-02-12T08:59:16.715Z,5.21
2023-02-12T09:00:17.209Z,5.23
2023-02-12T09:01:16.844Z,5.24
2023-02-12T09:02:16.474Z,5.28
2023-02-12T09:03:17.023Z,5.27
2023-02-12T09:04:16.509Z,5.30
2023-02-12T09:05:17.026Z,5.30
2023-02-12T09:06:16.519Z,5.34
2023-02-12T09:07:17.032Z,5.34
2023-02-12T09:08:16.511Z,5.30
2023-02-12T09:09:17.025Z,5.28
2023-02-12T09:10:16.543Z,5.27
2023-02-12T09:11:17.033Z,5.28
2023-02-12T09:12:16.559Z,5.23
2023-02-12T09:13:17.054Z,5.25
2023-02-12T09:14:16.582Z,5.17
2023-02-12T09:15:17.067Z,5.18
2023-02-12T09:16:16.619Z,5.15
2023-02-12T09:17:17.236Z,5.15
2023-02-12T09:18:16.774Z,5.34
2023-02-12T09:19:16.286Z,5.42
2023-02-12T09:20:16.795Z,5.49
2023-02-12T09:21:17.297Z,5.63
2023-02-12T09:22:17.144Z,5.72
2023-02-12T09:23:16.638Z,5.75
2023-02-12T09:24:17.127Z,5.79
2023-02-12T09:25:16.638Z,5.77
2023-02-12T09:26:17.146Z,5.85
2023-02-12T09:27:16.650Z,5.89
2023-02-12T09:28:17.195Z,6.04
2023-02-12T09:29:16.840Z,6.05
2023-02-12T09:30:16.352Z,6.07
2023-02-12T09:31:16.923Z,5.93
2023-02-12T09:32:16.589Z,5.93
2023-02-12T09:33:17.071Z,5.98
2023-02-12T09:34:16.586Z,6.00
2023-02-12T09:35:17.102Z,5.96
2023-02-12T09:36:16.592Z,5.82
2023-02-12T09:37:17.063Z,5.92
2023-02-12T09:38:16.552Z,6.03
2023-02-12T09:39:17.030Z,6.10
2023-02-12T09:40:16.502Z,6.03
2023-02-12T09:41:16.998Z,6.07
2023-02-12T09:42:16.610Z,6.18
2023-02-12T09:43:17.117Z,6.20
2023-02-12T09:44:16.602Z,6.14
2023-02-12T09:45:17.176Z,6.04
2023-02-12T09:46:16.797Z,6.04
2023-02-12T09:47:16.470Z,6.05
2023-02-12T09:48:17.062Z,6.17
2023-02-12T09:49:16.560Z,6.10
2023-02-12T09:50:17.059Z,6.18
2023-02-12T09:51:16.575Z,6.33
2023-02-12T09:52:17.208Z,6.45
2023-02-12T09:53:16.744Z,6.39
2023-02-12T09:54:17.246Z,6.42
2023-02-12T09:55:16.739Z,6.48
2023-02-12T09:56:17.232Z,6.76
2023-02-12T09:57:16.767Z,6.86
2023-02-12T09:58:17.275Z,7.02
2023-02-12T09:59:16.790Z,7.15
2023-02-12T10:00:17.316Z,7.21
2023-02-12T10:01:16.833Z,7.33
2023-02-12T10:02:16.358Z,7.36
2023-02-12T10:03:16.884Z,7.14
2023-02-12T10:04:16.429Z,6.57
2023-02-12T10:05:17.061Z,6.55
2023-02-12T10:06:16.720Z,6.77
2023-02-12T10:07:17.201Z,6.80
2023-02-12T10:08:16.679Z,6.87
2023-02-12T10:09:17.191Z,7.00
2023-02-12T10:10:16.680Z,7.07
2023-02-12T10:11:17.189Z,7.14
2023-02-12T10:12:16.505Z,6.93
2023-02-12T10:13:17.020Z,6.84
2023-02-12T10:14:16.512Z,6.56
2023-02-12T10:15:17.101Z,6.43
2023-02-12T10:16:16.614Z,6.46
2023-02-12T10:17:16.350Z,6.59
2023-02-12T10:18:16.824Z,6.70
2023-02-12T10:19:16.317Z,6.80
2023-02-12T10:20:16.806Z,6.91
2023-02-12T10:21:16.326Z,7.01
2023-02-12T10:22:17.219Z,7.04
2023-02-12T10:23:16.701Z,7.02
2023-02-12T10:24:17.188Z,7.07
2023-02-12T10:25:16.700Z,6.97
2023-02-12T10:26:17.242Z,7.05
2023-02-12T10:27:16.766Z,7.12
2023-02-12T10:28:17.288Z,7.21
2023-02-12T10:29:16.830Z,7.29
2023-02-12T10:30:16.340Z,7.36
2023-02-12T10:31:16.939Z,7.50
2023-02-12T10:32:17.266Z,7.39
2023-02-12T10:33:16.791Z,7.43
2023-02-12T10:34:17.297Z,7.40
2023-02-12T10:35:16.792Z,7.50
2023-02-12T10:36:17.258Z,7.42
2023-02-12T10:37:16.737Z,7.49
2023-02-12T10:38:17.213Z,7.43
2023-02-12T10:39:16.738Z,7.38
2023-02-12T10:40:17.247Z,7.39
2023-02-12T10:41:16.750Z,7.49
2023-02-12T10:42:16.791Z,7.54
2023-02-12T10:43:17.295Z,7.58
2023-02-12T10:44:16.770Z,7.63
2023-02-12T10:45:17.298Z,7.51
2023-02-12T10:46:16.870Z,7.53
2023-02-12T10:47:16.410Z,7.57
2023-02-12T10:48:17.854Z,7.46
2023-02-12T10:49:17.084Z,7.33
2023-02-12T10:50:16.571Z,7.28
2023-02-12T10:51:17.055Z,7.32
2023-02-12T10:52:17.305Z,7.28
2023-02-12T10:53:16.787Z,7.22
2023-02-12T10:54:17.294Z,7.14
2023-02-12T10:55:16.816Z,7.05
2023-02-12T10:56:16.304Z,7.07
2023-02-12T10:57:16.830Z,7.18
2023-02-12T10:58:16.355Z,7.15
2023-02-12T10:59:16.847Z,7.11
2023-02-12T11:00:16.364Z,7.12
2023-02-12T11:01:16.958Z,7.12
2023-02-12T11:02:17.233Z,7.14
2023-02-12T11:03:16.743Z,7.10
2023-02-12T11:04:17.257Z,7.07
2023-02-12T11:05:16.779Z,7.16
2023-02-12T11:06:16.372Z,7.19
2023-02-12T11:07:16.900Z,7.25
2023-02-12T11:08:16.386Z,7.35
2023-02-12T11:09:16.876Z,7.35
2023-02-12T11:10:16.383Z,7.40
2023-02-12T11:11:16.887Z,7.49
2023-02-12T11:12:16.819Z,7.47
2023-02-12T11:13:16.295Z,7.51
2023-02-12T11:14:16.819Z,7.58
2023-02-12T11:15:16.350Z,7.51
2023-02-12T11:16:16.956Z,7.39
2023-02-12T11:17:16.521Z,7.22
2023-02-12T11:18:17.015Z,7.25
2023-02-12T11:19:16.492Z,7.32
2023-02-12T11:20:16.967Z,7.40
2023-02-12T11:21:16.483Z,7.47
2023-02-12T11:22:17.138Z,7.40
2023-02-12T11:23:16.657Z,7.38
2023-02-12T11:24:17.137Z,7.29
2023-02-12T11:25:16.663Z,7.30
2023-02-12T11:26:17.216Z,7.30
2023-02-12T11:27:16.833Z,7.16
2023-02-12T11:28:16.417Z,7.04
2023-02-12T11:29:17.302Z,7.05
2023-02-12T11:30:17.040Z,7.00
2023-02-12T11:31:16.635Z,6.91
2023-02-12T11:32:16.751Z,6.86
2023-02-12T11:33:17.230Z,6.86
2023-02-12T11:34:16.717Z,6.97
2023-02-12T11:35:17.269Z,6.88
2023-02-12T11:36:16.776Z,6.93
2023-02-12T11:37:17.303Z,7.01
2023-02-12T11:38:16.795Z,7.04
2023-02-12T11:39:17.279Z,7.00
2023-02-12T11:40:16.826Z,7.10
2023-02-12T11:41:16.338Z,7.04
2023-02-12T11:42:16.664Z,7.10
2023-02-12T11:43:17.163Z,7.19
2023-02-12T11:44:16.679Z,7.23
2023-02-12T11:45:17.175Z,7.18
2023-02-12T11:46:16.710Z,7.08
2023-02-12T11:47:17.279Z,6.97
2023-02-12T11:48:16.799Z,6.95
2023-02-12T11:49:17.280Z,7.04
2023-02-12T11:50:16.790Z,7.11
2023-02-12T11:51:17.311Z,7.14
2023-02-12T11:52:16.596Z,7.12
2023-02-12T11:53:17.135Z,7.10
2023-02-12T11:54:16.621Z,7.19
2023-02-12T11:55:17.138Z,7.23
2023-02-12T11:56:16.647Z,7.21
2023-02-12T11:57:17.152Z,7.21
2023-02-12T11:58:16.678Z,7.22
2023-02-12T11:59:17.215Z,7.19
2023-02-12T12:00:16.726Z,7.04
2023-02-12T12:01:19.393Z,6.97
2023-02-12T12:02:16.790Z,7.01
2023-02-12T12:03:16.454Z,7.10
2023-02-12T12:04:17.098Z,7.19
2023-02-12T12:05:16.587Z,7.28
2023-02-12T12:06:17.090Z,7.35
2023-02-12T12:07:16.600Z,7.39
2023-02-12T12:08:17.105Z,7.40
2023-02-12T12:09:16.642Z,7.45
2023-02-12T12:10:17.174Z,7.46
2023-02-12T12:11:16.679Z,7.42
2023-02-12T12:12:16.710Z,7.42
2023-02-12T12:13:17.180Z,7.46
2023-02-12T12:14:16.693Z,7.47
2023-02-12T12:15:17.195Z,7.33
2023-02-12T12:16:16.723Z,7.28
2023-02-12T12:17:17.262Z,7.18
2023-02-12T12:18:17.249Z,7.19
2023-02-12T12:19:16.748Z,7.28
2023-02-12T12:20:17.274Z,7.42
2023-02-12T12:21:16.778Z,7.61
2023-02-12T12:22:16.333Z,7.73
2023-02-12T12:23:16.838Z,7.80
2023-02-12T12:24:16.358Z,7.84
2023-02-12T12:25:16.875Z,7.97
2023-02-12T12:26:16.705Z,8.00
2023-02-12T12:27:17.191Z,8.02
2023-02-12T12:28:16.838Z,8.06
2023-02-12T12:29:16.385Z,8.00
2023-02-12T12:30:16.983Z,8.08
2023-02-12T12:31:16.638Z,8.11
2023-02-12T12:32:16.906Z,7.98
2023-02-12T12:33:16.437Z,7.92
2023-02-12T12:34:16.954Z,7.78
2023-02-12T12:35:16.508Z,7.51
2023-02-12T12:36:17.064Z,7.40
2023-02-12T12:37:16.556Z,7.60
2023-02-12T12:38:17.070Z,7.77
2023-02-12T12:39:16.606Z,7.83
2023-02-12T12:40:17.139Z,7.90
2023-02-12T12:41:16.746Z,8.00
2023-02-12T12:42:17.296Z,8.00
2023-02-12T12:43:16.818Z,7.80
2023-02-12T12:44:16.296Z,7.56
2023-02-12T12:45:16.991Z,7.53
2023-02-12T12:46:16.541Z,7.39
2023-02-12T12:47:17.131Z,7.25
2023-02-12T12:48:16.683Z,7.18
2023-02-12T12:49:17.250Z,7.25
2023-02-12T12:50:16.790Z,7.25
2023-02-12T12:51:16.377Z,7.21
2023-02-12T12:52:16.887Z,7.21
2023-02-12T12:53:16.377Z,7.12
2023-02-12T12:54:16.857Z,7.18
2023-02-12T12:55:16.351Z,7.18
2023-02-12T12:56:16.378Z,7.23
2023-02-12T12:57:16.910Z,7.18
2023-02-12T12:58:16.453Z,7.26
2023-02-12T12:59:16.946Z,7.23
2023-02-12T13:00:18.057Z,7.16
2023-02-12T13:01:16.374Z,7.18
2023-02-12T13:02:16.436Z,7.21
2023-02-12T13:03:17.007Z,7.21
2023-02-12T13:04:16.523Z,7.08
2023-02-12T13:05:17.020Z,7.02
2023-02-12T13:06:16.502Z,7.05
2023-02-12T13:07:16.997Z,7.04
2023-02-12T13:08:16.530Z,7.07
2023-02-12T13:09:17.045Z,7.15
2023-02-12T13:10:16.652Z,7.15
2023-02-12T13:11:17.247Z,7.04
2023-02-12T13:12:16.646Z,7.02
2023-02-12T13:13:17.132Z,7.07
2023-02-12T13:14:16.648Z,7.12
2023-02-12T13:15:17.163Z,7.18
2023-02-12T13:16:16.675Z,7.23
2023-02-12T13:17:17.272Z,7.18
2023-02-12T13:18:16.803Z,7.15